Time;durP1;ratioP1;P1;durP2;ratioP2;P2;SDS_P1;SDS_P2;PMS_P1;PMS_P2;Temp;Humidity;BMP_temperature;BMP_pressure;BME280_temperature;BME280_humidity;BME280_pressure;Samples;Min_cycle;Max_cycle;Signal;HPM_P1;HPM_P2
2022/10/11 00:00:08;;;;;;;26.02;12.82;;;;;;;11.28;84.54;99723.06;1724804;82;21012;-76
2022/10/11 00:02:36;;;;;;;27.00;11.83;;;;;;;11.27;83.71;99726.98;1725975;82;20993;-78
2022/10/11 00:05:03;;;;;;;21.52;11.03;;;;;;;11.25;85.34;99728.30;1706284;82;21511;-78
2022/10/11 00:07:30;;;;;;;22.52;12.28;;;;;;;11.27;84.68;99726.98;1720555;82;21507;-79
2022/10/11 00:09:56;;;;;;;24.95;11.65;;;;;;;11.24;85.61;99731.81;1716170;82;21023;-79
2022/10/11 00:12:23;;;;;;;21.35;11.65;;;;;;;11.25;85.18;99727.45;1714252;82;21571;-78
2022/10/11 00:14:50;;;;;;;23.35;11.97;;;;;;;11.27;85.21;99738.70;1705490;82;20997;-78
2022/10/11 00:17:16;;;;;;;22.55;11.43;;;;;;;11.28;84.86;99723.48;1719936;82;21005;-79
2022/10/11 00:19:43;;;;;;;25.80;11.55;;;;;;;11.31;85.80;99732.55;1711017;82;21587;-78
2022/10/11 00:22:09;;;;;;;24.57;11.03;;;;;;;11.34;86.18;99733.36;1712139;82;21035;-79
2022/10/11 00:24:36;;;;;;;22.93;11.70;;;;;;;11.37;85.23;99725.08;1707577;82;21568;-78
2022/10/11 00:27:02;;;;;;;20.15;10.80;;;;;;;11.37;85.66;99730.28;1718524;82;21015;-79
2022/10/11 00:29:29;;;;;;;29.27;11.68;;;;;;;11.40;86.09;99723.70;1716748;82;20994;-78
2022/10/11 00:31:56;;;;;;;24.90;11.45;;;;;;;11.41;85.56;99725.44;1723422;82;21500;-78
2022/10/11 00:34:22;;;;;;;22.10;10.98;;;;;;;11.41;85.56;99730.19;1714851;82;21023;-78
2022/10/11 00:36:49;;;;;;;21.77;11.40;;;;;;;11.44;85.81;99723.64;1707607;82;21032;-78
2022/10/11 00:39:16;;;;;;;23.35;11.80;;;;;;;11.48;86.07;99725.72;1719095;82;21502;-79
2022/10/11 00:41:43;;;;;;;22.17;11.22;;;;;;;11.51;85.81;99728.28;1709593;82;21000;-78
2022/10/11 00:44:17;;;;;;;21.05;12.00;;;;;;;11.55;85.80;99727.33;1708779;82;21524;-78
2022/10/11 00:47:07;;;;;;;23.05;12.18;;;;;;;11.54;84.97;99726.94;1695425;82;20980;-79
2022/10/11 00:49:39;;;;;;;22.55;12.45;;;;;;;11.50;85.43;99727.88;1721040;82;20996;-79
2022/10/11 00:52:35;;;;;;;21.57;12.33;;;;;;;11.50;85.29;99730.48;1718392;82;21042;-79
2022/10/11 00:55:10;;;;;;;19.80;11.55;;;;;;;11.49;85.74;99732.66;1697143;83;20984;-79
2022/10/11 00:57:41;;;;;;;22.62;12.43;;;;;;;11.46;85.64;99730.98;1700468;82;21067;-80
2022/10/11 01:00:11;;;;;;;21.35;12.03;;;;;;;11.42;84.73;99730.62;1717024;82;20984;-79
2022/10/11 01:02:39;;;;;;;21.48;12.45;;;;;;;11.31;85.25;99723.44;1701756;82;21024;-78
2022/10/11 01:05:10;;;;;;;25.30;12.55;;;;;;;11.23;85.24;99727.47;1712378;82;21012;-76
2022/10/11 01:07:38;;;;;;;21.77;12.80;;;;;;;11.14;84.35;99726.33;1710951;82;21032;-77
2022/10/11 01:10:05;;;;;;;25.32;13.30;;;;;;;11.01;84.78;99719.19;1714392;82;21043;-78
2022/10/11 01:12:32;;;;;;;23.60;12.45;;;;;;;10.94;85.37;99723.64;1700517;82;21115;-79
2022/10/11 01:15:16;;;;;;;27.77;13.00;;;;;;;10.87;85.11;99719.86;1708221;82;21083;-79
2022/10/11 01:18:12;;;;;;;28.35;12.10;;;;;;;10.79;86.07;99716.08;1699919;82;21041;-78
2022/10/11 01:21:15;;;;;;;21.62;11.57;;;;;;;10.70;85.42;99713.61;1715049;81;21069;-78
2022/10/11 01:24:05;;;;;;;21.33;12.23;;;;;;;10.63;83.93;99713.31;1704199;82;21020;-79
2022/10/11 01:27:09;;;;;;;21.70;11.68;;;;;;;10.49;84.66;99716.12;1726025;82;21459;-77
2022/10/11 01:30:19;;;;;;;24.50;12.23;;;;;;;10.42;85.09;99712.73;1725153;82;20997;-79
2022/10/11 01:32:57;;;;;;;21.87;11.85;;;;;;;10.34;85.63;99708.09;1684968;82;21004;-78
2022/10/11 01:35:38;;;;;;;29.07;12.63;;;;;;;10.31;86.16;99707.70;1712143;82;21020;-78
2022/10/11 01:38:22;;;;;;;27.73;12.63;;;;;;;10.31;86.62;99709.45;1710044;82;21032;-78
2022/10/11 01:41:03;;;;;;;21.33;12.07;;;;;;;10.30;86.55;99707.71;1707340;82;21059;-79
2022/10/11 01:43:31;;;;;;;22.40;12.13;;;;;;;10.29;86.33;99703.37;1710135;82;20961;-78
2022/10/11 01:46:00;;;;;;;21.15;12.07;;;;;;;10.29;86.57;99703.37;1711213;82;21039;-78
2022/10/11 01:48:27;;;;;;;22.60;11.28;;;;;;;10.30;86.97;99704.66;1701892;82;21059;-78
2022/10/11 01:50:57;;;;;;;21.48;11.38;;;;;;;10.35;86.99;99704.17;1704201;82;21702;-78
2022/10/11 01:53:38;;;;;;;22.22;11.20;;;;;;;10.38;86.94;99705.01;1704011;82;21024;-78
2022/10/11 01:56:20;;;;;;;22.02;11.40;;;;;;;10.39;86.94;99705.44;1720713;82;21027;-78
2022/10/11 01:59:04;;;;;;;23.07;12.80;;;;;;;10.42;86.92;99704.93;1710483;82;21028;-77
2022/10/11 02:02:03;;;;;;;24.37;11.70;;;;;;;10.45;87.08;99703.59;1710195;82;21020;-78
2022/10/11 02:04:44;;;;;;;21.80;12.58;;;;;;;10.47;86.68;99700.53;1712415;82;21056;-77
2022/10/11 02:07:25;;;;;;;22.40;12.45;;;;;;;10.50;86.98;99707.00;1729631;82;20972;-78
2022/10/11 02:09:59;;;;;;;25.00;13.93;;;;;;;10.57;87.28;99704.31;1709770;82;21001;-78
2022/10/11 02:12:35;;;;;;;22.98;12.98;;;;;;;10.58;87.16;99715.96;1716724;82;21051;-77
2022/10/11 02:15:07;;;;;;;21.57;12.58;;;;;;;10.59;87.12;99712.49;1710037;82;21092;-78
2022/10/11 02:17:39;;;;;;;27.25;13.28;;;;;;;10.62;86.95;99710.27;1712150;82;21015;-78
2022/10/11 02:20:12;;;;;;;23.07;12.83;;;;;;;10.62;86.86;99716.33;1714435;82;21092;-78
2022/10/11 02:22:42;;;;;;;26.52;13.28;;;;;;;10.63;86.32;99718.52;1731239;81;20993;-78
2022/10/11 02:25:14;;;;;;;24.55;12.63;;;;;;;10.55;85.41;99713.42;1709937;82;21075;-79
2022/10/11 02:27:43;;;;;;;21.20;11.90;;;;;;;10.48;85.96;99719.59;1716726;82;21035;-77
2022/10/11 02:30:11;;;;;;;25.55;13.53;;;;;;;10.45;86.58;99716.59;1710353;82;21107;-78
2022/10/11 02:32:41;;;;;;;22.87;12.90;;;;;;;10.42;84.76;99719.67;1701178;82;21008;-79
2022/10/11 02:35:09;;;;;;;26.30;14.65;;;;;;;10.40;85.93;99714.49;1707394;82;21517;-78
2022/10/11 02:37:59;;;;;;;25.88;12.53;;;;;;;10.39;87.07;99715.39;1729190;82;21044;-78
2022/10/11 02:40:35;;;;;;;25.85;13.38;;;;;;;10.38;87.10;99712.36;1706053;82;21056;-78
2022/10/11 02:43:25;;;;;;;27.98;13.88;;;;;;;10.40;87.29;99704.09;1711805;82;21019;-78
2022/10/11 02:45:59;;;;;;;29.52;13.18;;;;;;;10.41;85.39;99707.12;1707267;82;21012;-78
2022/10/11 02:48:28;;;;;;;26.42;13.80;;;;;;;10.38;85.56;99704.56;1705498;82;21994;-78
2022/10/11 02:50:56;;;;;;;27.87;13.28;;;;;;;10.36;86.11;99706.32;1713409;82;21083;-78
2022/10/11 02:53:24;;;;;;;26.95;13.45;;;;;;;10.41;86.07;99706.28;1732307;82;21045;-79
2022/10/11 02:55:53;;;;;;;25.88;13.22;;;;;;;10.42;86.77;99704.93;1711153;82;20976;-76
2022/10/11 02:58:21;;;;;;;27.32;13.32;;;;;;;10.46;86.99;99707.05;1716127;82;21110;-79
2022/10/11 03:00:49;;;;;;;28.20;14.03;;;;;;;10.46;86.75;99702.70;1718288;82;21016;-79
2022/10/11 03:03:15;;;;;;;35.38;14.25;;;;;;;10.47;86.96;99703.14;1714956;82;21044;-78
2022/10/11 03:05:42;;;;;;;36.73;13.48;;;;;;;10.51;87.23;99698.75;1706944;82;21004;-79
2022/10/11 03:08:15;;;;;;;29.77;12.43;;;;;;;10.54;87.21;99697.39;1717265;82;21012;-78
2022/10/11 03:10:42;;;;;;;34.50;12.28;;;;;;;10.57;87.06;99692.61;1733919;82;20993;-78
2022/10/11 03:13:09;;;;;;;35.08;12.33;;;;;;;10.60;87.32;99701.19;1731311;82;21480;-78
2022/10/11 03:15:35;;;;;;;22.80;11.18;;;;;;;10.66;87.16;99698.94;1718288;82;20953;-78
2022/10/11 03:18:02;;;;;;;22.70;13.08;;;;;;;10.68;86.81;99701.08;1710143;82;21425;-78
2022/10/11 03:20:29;;;;;;;26.97;13.30;;;;;;;10.69;86.88;99708.01;1711966;82;21119;-77
2022/10/11 03:22:55;;;;;;;31.35;12.65;;;;;;;10.70;86.68;99711.02;1745170;82;21117;-77
2022/10/11 03:25:22;;;;;;;32.93;14.05;;;;;;;10.65;85.80;99705.89;1738475;82;21037;-79
2022/10/11 03:27:49;;;;;;;28.57;15.75;;;;;;;10.59;86.27;99699.49;1723670;82;21550;-79
2022/10/11 03:30:16;;;;;;;27.75;14.75;;;;;;;10.56;86.27;99699.52;1723606;82;20965;-82
2022/10/11 03:32:43;;;;;;;26.52;15.72;;;;;;;10.52;86.12;99699.16;1731283;82;21511;-79
2022/10/11 03:35:10;;;;;;;25.37;14.23;;;;;;;10.48;85.96;99708.73;1723861;82;20987;-78
2022/10/11 03:37:37;;;;;;;28.38;12.88;;;;;;;10.46;87.06;99708.34;1733468;82;21048;-77
2022/10/11 03:40:07;;;;;;;27.73;13.08;;;;;;;10.45;85.73;99713.14;1741218;82;21064;-79
2022/10/11 03:42:34;;;;;;;25.45;12.45;;;;;;;10.36;85.88;99712.82;1737866;82;21529;-78
2022/10/11 03:45:06;;;;;;;26.80;13.65;;;;;;;10.25;85.60;99704.30;1739522;82;20999;-79
2022/10/11 03:47:31;;;;;;;29.70;13.58;;;;;;;10.18;85.14;99711.75;1741960;82;21050;-79
2022/10/11 03:49:57;;;;;;;23.75;12.45;;;;;;;10.10;85.04;99707.50;1735896;82;20981;-78
2022/10/11 03:52:24;;;;;;;24.92;12.90;;;;;;;10.04;85.99;99704.99;1743862;82;21000;-78
2022/10/11 03:54:51;;;;;;;27.87;14.05;;;;;;;10.05;86.58;99706.73;1734921;82;21015;-78
2022/10/11 03:57:18;;;;;;;26.07;13.10;;;;;;;10.05;85.75;99704.13;1737218;82;21480;-78
2022/10/11 03:59:45;;;;;;;30.00;14.38;;;;;;;10.06;86.90;99703.68;1723726;82;21023;-78
2022/10/11 04:02:12;;;;;;;26.17;11.75;;;;;;;10.10;87.00;99708.80;1683533;85;21086;-78
2022/10/11 04:04:39;;;;;;;24.75;13.58;;;;;;;10.14;86.30;99704.44;1728212;82;21031;-78
2022/10/11 04:07:07;;;;;;;30.77;12.35;;;;;;;10.11;87.25;99704.49;1723930;82;21090;-78
2022/10/11 04:09:34;;;;;;;28.67;13.20;;;;;;;10.12;87.38;99703.15;1729221;82;21031;-78
2022/10/11 04:12:00;;;;;;;25.75;14.00;;;;;;;10.14;86.87;99696.64;1731237;82;21042;-78
2022/10/11 04:14:27;;;;;;;27.32;12.95;;;;;;;10.18;87.72;99696.16;1727578;82;21007;-78
2022/10/11 04:16:54;;;;;;;28.83;13.48;;;;;;;10.23;87.77;99700.88;1729964;82;21116;-79
2022/10/11 04:19:21;;;;;;;26.60;12.60;;;;;;;10.29;87.54;99699.03;1738070;82;21047;-78
2022/10/11 04:21:48;;;;;;;25.62;13.15;;;;;;;10.30;87.00;99702.06;1729756;81;21032;-78
2022/10/11 04:24:14;;;;;;;23.65;12.98;;;;;;;10.35;87.68;99700.27;1732717;81;21015;-78
2022/10/11 04:26:41;;;;;;;23.40;11.60;;;;;;;10.42;87.67;99702.33;1746261;81;21628;-78
2022/10/11 04:29:07;;;;;;;25.57;13.95;;;;;;;10.44;87.63;99691.91;1732976;81;21035;-79
2022/10/11 04:31:34;;;;;;;27.93;13.80;;;;;;;10.50;87.49;99693.12;1731303;81;21082;-78
2022/10/11 04:34:01;;;;;;;26.57;13.13;;;;;;;10.54;87.57;99693.08;1742340;81;21531;-78
2022/10/11 04:36:28;;;;;;;32.38;13.55;;;;;;;10.60;87.55;99688.64;1735906;81;21019;-78
2022/10/11 04:38:55;;;;;;;31.97;13.53;;;;;;;10.63;87.53;99696.41;1734723;81;21019;-78
2022/10/11 04:41:22;;;;;;;31.10;15.10;;;;;;;10.65;87.36;99700.69;1738813;81;21056;-78
2022/10/11 04:43:48;;;;;;;31.50;15.58;;;;;;;10.66;87.36;99706.74;1752778;81;20999;-76
2022/10/11 04:46:15;;;;;;;31.33;14.87;;;;;;;10.65;86.99;99698.55;1740982;81;21044;-78
2022/10/11 04:48:41;;;;;;;49.67;27.45;;;;;;;10.58;86.70;99709.91;1744536;81;21506;-78
2022/10/11 04:51:08;;;;;;;32.13;15.63;;;;;;;10.57;86.84;99708.20;1744205;81;21029;-78
2022/10/11 04:53:35;;;;;;;37.58;18.50;;;;;;;10.53;86.02;99708.23;1732353;81;21048;-78
2022/10/11 04:56:09;;;;;;;30.62;15.25;;;;;;;10.50;86.51;99705.70;1739711;81;21042;-78
2022/10/11 04:58:37;;;;;;;35.65;15.90;;;;;;;10.48;86.02;99711.34;1731432;81;21033;-78
2022/10/11 05:01:03;;;;;;;32.30;15.98;;;;;;;10.45;85.84;99711.84;1746119;81;21028;-77
2022/10/11 05:03:30;;;;;;;32.80;15.95;;;;;;;10.39;86.44;99705.44;1756055;81;21172;-78
2022/10/11 05:05:57;;;;;;;39.58;13.90;;;;;;;10.37;87.15;99709.36;1727010;81;21043;-78
2022/10/11 05:08:23;;;;;;;27.50;14.35;;;;;;;10.37;85.92;99711.95;1731363;81;21608;-78
2022/10/11 05:11:02;;;;;;;34.03;14.35;;;;;;;10.35;86.20;99717.16;1736144;81;20960;-78
2022/10/11 05:13:30;;;;;;;29.48;14.15;;;;;;;10.34;86.25;99714.58;1731479;81;21047;-82
2022/10/11 05:15:57;;;;;;;31.70;13.98;;;;;;;10.34;86.80;99712.87;1734786;81;21495;-78
2022/10/11 05:18:24;;;;;;;34.50;13.28;;;;;;;10.35;86.55;99717.16;1731538;81;21024;-79
2022/10/11 05:21:08;;;;;;;29.85;14.68;;;;;;;10.38;87.55;99721.45;1731634;81;21068;-78
2022/10/11 05:23:36;;;;;;;38.67;16.80;;;;;;;10.40;87.00;99714.49;1732212;81;22284;-78
2022/10/11 05:26:03;;;;;;;45.83;21.20;;;;;;;10.47;87.08;99720.03;1732010;82;21007;-78
2022/10/11 05:28:31;;;;;;;34.30;17.02;;;;;;;10.53;87.38;99725.14;1730620;82;22203;-78
2022/10/11 05:30:58;;;;;;;61.05;16.52;;;;;;;10.58;87.28;99722.45;1732606;82;21031;-79
2022/10/11 05:33:25;;;;;;;26.97;13.75;;;;;;;10.63;87.24;99726.31;1734329;82;21543;-79
2022/10/11 05:35:51;;;;;;;26.30;13.58;;;;;;;10.64;87.25;99727.56;1745831;80;21062;-78
2022/10/11 05:38:18;;;;;;;35.35;13.48;;;;;;;10.68;87.04;99734.88;1735242;82;21004;-78
2022/10/11 05:40:45;;;;;;;24.37;12.98;;;;;;;10.71;87.37;99727.05;1733542;81;21622;-79
2022/10/11 05:43:12;;;;;;;27.65;13.08;;;;;;;10.78;87.05;99727.34;1737462;82;21043;-79
2022/10/11 05:45:41;;;;;;;24.57;12.70;;;;;;;10.77;87.12;99738.66;1729896;82;21551;-78
2022/10/11 05:48:08;;;;;;;25.35;13.00;;;;;;;10.83;86.92;99732.50;1718627;82;20997;-79
2022/10/11 05:50:36;;;;;;;29.75;13.00;;;;;;;10.81;86.98;99744.67;1732234;82;21501;-78
2022/10/11 05:53:04;;;;;;;27.42;13.58;;;;;;;10.82;86.68;99745.07;1732712;82;21003;-78
2022/10/11 05:55:36;;;;;;;24.15;13.28;;;;;;;10.79;86.67;99744.69;1734501;82;21324;-78
2022/10/11 05:58:02;;;;;;;25.00;13.20;;;;;;;10.82;86.72;99747.22;1731549;82;21023;-78
2022/10/11 06:00:29;;;;;;;22.70;13.38;;;;;;;10.85;85.98;99742.44;1736787;80;21071;-79
2022/10/11 06:02:56;;;;;;;26.05;13.38;;;;;;;10.85;86.44;99743.73;1730907;80;21012;-78
2022/10/11 06:05:23;;;;;;;26.27;13.90;;;;;;;10.88;86.53;99743.25;1731641;82;21035;-81
2022/10/11 06:07:49;;;;;;;29.35;14.13;;;;;;;10.86;86.25;99745.44;1733616;82;21020;-79
2022/10/11 06:10:16;;;;;;;29.02;14.87;;;;;;;10.85;86.00;99748.94;1735363;82;21029;-79
2022/10/11 06:12:45;;;;;;;29.80;14.25;;;;;;;10.84;86.04;99751.99;1730671;82;21072;-78
2022/10/11 06:15:11;;;;;;;24.07;13.62;;;;;;;10.88;86.32;99752.36;1733855;82;21033;-79
2022/10/11 06:17:38;;;;;;;31.55;13.43;;;;;;;10.92;86.11;99744.92;1732024;82;21503;-78
2022/10/11 06:20:06;;;;;;;26.27;13.28;;;;;;;10.96;85.28;99745.70;1731801;81;21078;-81
2022/10/11 06:22:33;;;;;;;41.48;15.35;;;;;;;10.97;85.68;99747.44;1721056;82;21056;-79
2022/10/11 06:25:00;;;;;;;28.45;14.65;;;;;;;10.99;85.77;99748.72;1719745;82;21044;-81
2022/10/11 06:27:27;;;;;;;37.83;15.30;;;;;;;11.07;85.79;99749.45;1712842;82;21731;-81
2022/10/11 06:29:55;;;;;;;25.02;13.55;;;;;;;11.17;85.72;99751.45;1716871;82;21004;-79
2022/10/11 06:32:22;;;;;;;29.02;14.58;;;;;;;11.20;85.72;99752.27;1728454;81;21605;-79
2022/10/11 06:34:49;;;;;;;25.75;13.48;;;;;;;11.26;85.76;99752.58;1666439;86;21037;-80
2022/10/11 06:37:15;;;;;;;30.32;13.45;;;;;;;11.35;85.63;99751.98;1689458;84;20980;-79
2022/10/11 06:39:42;;;;;;;25.17;12.13;;;;;;;11.44;85.34;99754.00;1662857;84;21039;-80
2022/10/11 06:42:10;;;;;;;28.87;11.73;;;;;;;11.52;85.19;99749.54;1688973;83;21114;-79
2022/10/11 06:44:38;;;;;;;34.60;13.62;;;;;;;11.64;85.09;99753.21;1734238;82;20961;-78
2022/10/11 06:47:07;;;;;;;26.10;13.13;;;;;;;11.69;84.64;99751.36;1715731;82;21474;-81
2022/10/11 06:49:34;;;;;;;25.85;12.93;;;;;;;11.73;84.12;99752.16;1720068;82;20996;-78
2022/10/11 06:52:02;;;;;;;29.48;13.55;;;;;;;11.83;84.02;99758.06;1719615;82;20992;-79
2022/10/11 06:54:29;;;;;;;24.05;13.22;;;;;;;11.87;83.84;99754.50;1717335;82;21037;-80
2022/10/11 06:56:57;;;;;;;23.60;12.75;;;;;;;11.93;83.54;99755.71;1714135;82;20972;-79
2022/10/11 06:59:24;;;;;;;26.73;13.83;;;;;;;12.01;83.08;99765.53;1717776;82;20975;-79
2022/10/11 07:01:50;;;;;;;24.07;13.53;;;;;;;12.00;82.60;99765.59;1725096;82;21020;-79
2022/10/11 07:04:17;;;;;;;29.15;13.98;;;;;;;12.01;82.34;99770.75;1722730;82;21013;-80
2022/10/11 07:06:43;;;;;;;25.48;12.73;;;;;;;12.08;82.27;99772.80;1716299;82;20969;-78
2022/10/11 07:09:10;;;;;;;23.20;11.80;;;;;;;12.13;82.19;99768.33;1724987;82;21028;-80
2022/10/11 07:11:37;;;;;;;26.37;12.13;;;;;;;12.19;81.48;99770.81;1729142;82;20999;-79
2022/10/11 07:14:06;;;;;;;25.10;12.58;;;;;;;12.22;81.70;99771.21;1717886;82;20992;-79
2022/10/11 07:16:37;;;;;;;30.57;11.55;;;;;;;12.29;81.47;99776.69;1724667;82;21089;-78
2022/10/11 07:19:06;;;;;;;31.33;11.50;;;;;;;12.41;81.80;99778.18;1706809;82;21076;-78
2022/10/11 07:21:34;;;;;;;21.30;10.63;;;;;;;12.52;81.45;99777.51;1724817;82;21012;-80
2022/10/11 07:24:02;;;;;;;23.95;11.00;;;;;;;12.62;80.80;99772.50;1721608;82;21122;-78
2022/10/11 07:26:30;;;;;;;18.52;9.35;;;;;;;12.72;80.73;99771.84;1719450;82;21053;-79
2022/10/11 07:28:56;;;;;;;22.40;9.73;;;;;;;12.85;79.63;99770.67;1726882;82;21058;-80
2022/10/11 07:31:25;;;;;;;18.40;9.85;;;;;;;12.87;78.83;99768.88;1725386;82;21047;-80
2022/10/11 07:33:52;;;;;;;20.25;9.48;;;;;;;13.02;79.29;99772.02;1734038;82;21032;-80
2022/10/11 07:36:19;;;;;;;23.55;10.25;;;;;;;13.04;79.07;99780.66;1732834;82;21044;-81
2022/10/11 07:38:47;;;;;;;23.50;11.00;;;;;;;13.08;78.34;99779.23;1739659;82;21095;-80
2022/10/11 07:41:14;;;;;;;26.50;13.48;;;;;;;13.09;78.22;99778.36;1724341;82;21076;-81
2022/10/11 07:43:42;;;;;;;26.45;13.20;;;;;;;13.14;77.76;99780.84;1723460;82;21065;-80
2022/10/11 07:46:10;;;;;;;17.55;10.65;;;;;;;13.12;77.75;99786.55;1727897;82;21512;-78
2022/10/11 07:48:37;;;;;;;26.65;11.12;;;;;;;13.11;76.79;99783.52;1727611;82;21024;-80
2022/10/11 07:51:15;;;;;;;14.68;7.70;;;;;;;13.18;77.27;99788.16;1721742;82;21056;-79
2022/10/11 07:53:48;;;;;;;19.77;8.95;;;;;;;13.21;77.30;99783.73;1732224;82;21061;-80
2022/10/11 07:56:20;;;;;;;16.57;9.03;;;;;;;13.26;76.90;99784.91;1722511;82;21568;-79
2022/10/11 07:58:58;;;;;;;20.95;9.35;;;;;;;13.37;77.11;99786.84;1730184;82;21111;-80
2022/10/11 08:01:26;;;;;;;20.95;8.25;;;;;;;13.40;76.03;99788.05;1703262;82;21004;-80
2022/10/11 08:03:55;;;;;;;20.35;10.18;;;;;;;13.45;75.43;99786.62;1746442;82;21083;-80
2022/10/11 08:06:28;;;;;;;23.47;10.53;;;;;;;13.52;76.72;99792.11;1724754;82;21059;-80
2022/10/11 08:08:55;;;;;;;22.35;11.65;;;;;;;13.57;76.57;99798.08;1726299;82;21551;-80
2022/10/11 08:11:26;;;;;;;24.47;11.75;;;;;;;13.58;76.41;99797.63;1729992;82;20983;-80
2022/10/11 08:13:53;;;;;;;23.85;11.45;;;;;;;13.59;76.21;99802.81;1724107;82;21356;-79
2022/10/11 08:16:21;;;;;;;18.55;9.78;;;;;;;13.67;76.34;99795.63;1726504;82;21011;-80
2022/10/11 08:18:47;;;;;;;19.32;10.38;;;;;;;13.74;75.31;99800.23;1731367;82;21136;-80
2022/10/11 08:21:17;;;;;;;19.67;10.32;;;;;;;13.73;74.87;99792.84;1730909;82;21784;-80
2022/10/11 08:23:45;;;;;;;19.35;9.75;;;;;;;13.79;74.84;99792.29;1720196;82;21461;-79
2022/10/11 08:26:11;;;;;;;20.17;10.43;;;;;;;13.79;74.78;99793.14;1707354;82;21047;-79
2022/10/11 08:28:38;;;;;;;21.87;10.25;;;;;;;13.89;73.71;99791.98;1717413;82;21025;-80
2022/10/11 08:31:05;;;;;;;18.92;10.03;;;;;;;14.02;74.06;99787.72;1723399;82;21021;-81
2022/10/11 08:33:32;;;;;;;20.57;10.43;;;;;;;14.08;74.56;99791.45;1717063;82;21010;-80
2022/10/11 08:36:03;;;;;;;23.22;10.68;;;;;;;14.25;73.72;99781.84;1718040;82;21992;-80
2022/10/11 08:38:30;;;;;;;19.02;10.50;;;;;;;14.37;74.13;99787.16;1712615;82;20997;-81
2022/10/11 08:40:58;;;;;;;14.85;8.70;;;;;;;14.45;73.21;99785.17;1713394;82;21749;-78
2022/10/11 08:43:42;;;;;;;16.02;8.35;;;;;;;14.57;73.02;99795.30;1712352;82;21107;-80
2022/10/11 08:46:12;;;;;;;15.78;8.18;;;;;;;14.67;72.99;99788.02;1722216;82;21107;-80
2022/10/11 08:48:46;;;;;;;14.35;7.90;;;;;;;14.69;72.28;99797.98;1728920;82;21032;-83
2022/10/11 08:51:22;;;;;;;23.45;8.55;;;;;;;14.79;73.34;99792.88;1720572;82;20996;-82
2022/10/11 08:53:56;;;;;;;19.12;9.55;;;;;;;14.98;73.10;99792.28;1722413;82;21599;-80
2022/10/11 08:56:25;;;;;;;18.35;9.88;;;;;;;14.93;71.64;99791.12;1721122;82;21036;-78
2022/10/11 08:58:57;;;;;;;19.25;8.63;;;;;;;14.98;72.24;99790.55;1725128;82;20972;-78
2022/10/11 09:01:26;;;;;;;19.75;9.48;;;;;;;15.03;71.77;99777.30;1712746;82;21032;-81
2022/10/11 09:03:53;;;;;;;19.75;9.93;;;;;;;15.04;71.18;99785.53;1717021;82;21071;-78
2022/10/11 09:06:34;;;;;;;16.17;9.03;;;;;;;15.10;70.30;99783.59;1713779;82;21043;-78
2022/10/11 09:09:29;;;;;;;14.95;9.08;;;;;;;15.14;70.72;99779.12;1703619;82;21068;-79
2022/10/11 09:12:05;;;;;;;19.05;9.03;;;;;;;15.24;70.36;99780.52;1719125;81;21485;-79
2022/10/11 09:14:37;;;;;;;18.95;9.03;;;;;;;15.19;69.40;99778.49;1708721;82;21091;-79
2022/10/11 09:17:42;;;;;;;15.75;8.83;;;;;;;15.22;69.91;99785.38;1713511;82;21071;-78
2022/10/11 09:20:39;;;;;;;20.65;10.30;;;;;;;15.19;70.19;99786.35;1722825;82;21051;-79
2022/10/11 09:23:40;;;;;;;21.45;10.55;;;;;;;15.17;69.71;99780.31;1722778;81;21040;-79
2022/10/11 09:26:29;;;;;;;25.55;10.38;;;;;;;15.31;69.99;99780.70;1716708;82;21044;-81
2022/10/11 09:29:47;;;;;;;20.75;10.10;;;;;;;15.37;70.25;99771.78;1666712;84;21035;-78
2022/10/11 09:32:21;;;;;;;20.32;9.93;;;;;;;15.37;69.04;99780.10;1647448;84;21702;-79
2022/10/11 09:35:02;;;;;;;23.45;10.93;;;;;;;15.42;69.92;99774.23;1679757;84;21066;-79
2022/10/11 09:37:34;;;;;;;22.60;12.20;;;;;;;15.45;70.08;99774.98;1674621;84;21130;-79
2022/10/11 09:40:43;;;;;;;24.27;11.48;;;;;;;15.53;69.89;99768.64;1682262;84;21758;-78
2022/10/11 09:43:10;;;;;;;20.00;9.75;;;;;;;15.62;69.68;99771.80;1680513;84;21028;-79
2022/10/11 09:45:37;;;;;;;23.95;11.28;;;;;;;15.57;69.02;99772.87;1681310;84;21650;-79
2022/10/11 09:48:06;;;;;;;21.20;10.63;;;;;;;15.65;69.57;99772.98;1680791;84;21088;-78
2022/10/11 09:50:34;;;;;;;22.15;11.57;;;;;;;15.59;69.35;99768.42;1682644;84;21589;-80
2022/10/11 09:53:07;;;;;;;19.05;11.00;;;;;;;15.62;69.61;99765.25;1681519;84;21024;-81
2022/10/11 09:55:53;;;;;;;22.35;10.23;;;;;;;15.61;69.78;99765.30;1673874;84;21043;-78
2022/10/11 09:58:30;;;;;;;19.07;10.48;;;;;;;15.63;68.98;99768.72;1643165;84;21090;-79
2022/10/11 10:01:05;;;;;;;15.88;9.10;;;;;;;15.66;68.68;99768.16;1675269;84;21463;-78
2022/10/11 10:03:40;;;;;;;15.55;9.00;;;;;;;15.75;69.03;99760.45;1676673;84;21020;-79
2022/10/11 10:06:24;;;;;;;21.30;8.58;;;;;;;15.76;68.95;99764.80;1684171;84;21035;-78
2022/10/11 10:08:51;;;;;;;15.78;8.68;;;;;;;15.83;69.06;99758.40;1683326;83;21072;-79
2022/10/11 10:11:19;;;;;;;18.12;9.28;;;;;;;15.91;68.62;99756.35;1679683;84;22465;-78
2022/10/11 10:13:55;;;;;;;16.00;9.03;;;;;;;15.92;67.17;99751.98;1677501;84;21419;-79
2022/10/11 10:16:26;;;;;;;17.73;9.78;;;;;;;15.99;67.55;99751.30;1681074;84;21043;-78
2022/10/11 10:19:05;;;;;;;22.07;8.70;;;;;;;16.08;67.69;99749.66;1678505;84;21019;-78
2022/10/11 10:21:47;;;;;;;18.52;8.90;;;;;;;16.15;67.65;99749.80;1674301;84;21012;-78
2022/10/11 10:24:27;;;;;;;17.20;8.65;;;;;;;16.28;67.57;99746.28;1673007;84;21067;-77
2022/10/11 10:27:19;;;;;;;20.40;9.03;;;;;;;16.35;67.14;99747.73;1676292;84;21071;-77
2022/10/11 10:30:13;;;;;;;15.43;8.85;;;;;;;16.46;67.05;99750.81;1677636;83;21695;-78
2022/10/11 10:33:03;;;;;;;21.60;11.18;;;;;;;16.62;67.31;99741.87;1681657;84;21076;-78
2022/10/11 10:35:41;;;;;;;17.87;9.03;;;;;;;16.73;66.38;99733.56;1679108;84;21043;-79
2022/10/11 10:38:16;;;;;;;14.20;8.98;;;;;;;16.89;66.49;99730.77;1726234;82;21719;-78
2022/10/11 10:40:51;;;;;;;17.55;8.55;;;;;;;17.03;65.87;99735.45;1724305;82;21024;-79
2022/10/11 10:43:21;;;;;;;14.45;8.25;;;;;;;16.98;65.38;99729.98;1720198;82;21033;-79
2022/10/11 10:46:13;;;;;;;16.05;9.08;;;;;;;17.00;64.98;99730.31;1728917;82;21526;-79
2022/10/11 10:49:05;;;;;;;16.93;8.73;;;;;;;17.04;65.27;99729.73;1720564;82;21019;-79
2022/10/11 10:52:07;;;;;;;22.82;8.75;;;;;;;17.07;65.43;99727.84;1717864;82;21175;-78
2022/10/11 10:54:48;;;;;;;20.48;8.53;;;;;;;17.16;65.06;99729.68;1704575;82;21072;-79
2022/10/11 10:57:47;;;;;;;20.88;9.00;;;;;;;17.22;63.81;99726.79;1729431;82;21111;-78
2022/10/11 11:00:20;;;;;;;18.40;8.63;;;;;;;17.29;64.91;99726.94;1722615;82;21090;-78
2022/10/11 11:03:00;;;;;;;14.30;8.35;;;;;;;17.40;63.65;99721.20;1733046;82;21590;-78
2022/10/11 11:05:47;;;;;;;17.30;8.15;;;;;;;17.48;62.30;99726.52;1710115;82;21059;-79
2022/10/11 11:08:38;;;;;;;16.90;9.45;;;;;;;17.61;62.71;99716.80;1720756;82;21056;-82
2022/10/11 11:11:48;;;;;;;16.77;8.10;;;;;;;17.79;63.78;99720.39;1718095;82;21008;-78
2022/10/11 11:14:54;;;;;;;14.33;8.40;;;;;;;17.95;63.27;99721.42;1727483;82;21317;-78
2022/10/11 11:17:58;;;;;;;18.37;8.85;;;;;;;18.22;62.91;99714.48;1725837;81;21572;-80
2022/10/11 11:20:31;;;;;;;;;;;;;;;18.41;63.16;99711.38;1723369;82;21280;-79
2022/10/11 11:23:03;;;;;;;17.55;9.03;;;;;;;18.48;60.56;99711.94;1718875;82;20152;-79
2022/10/11 11:25:44;;;;;;;16.50;8.45;;;;;;;18.67;62.43;99705.33;1728998;82;21384;-79
2022/10/11 11:28:33;;;;;;;20.25;9.05;;;;;;;18.91;62.54;99703.77;1735420;82;20988;-80
2022/10/11 11:31:27;;;;;;;27.35;8.70;;;;;;;19.08;60.70;99702.00;1645804;85;21403;-79
2022/10/11 11:34:37;;;;;;;17.17;8.28;;;;;;;19.14;60.95;99698.64;1667033;85;21043;-78
2022/10/11 11:37:12;;;;;;;18.45;8.73;;;;;;;19.29;58.60;99692.59;1730450;82;21016;-80
2022/10/11 11:39:47;;;;;;;14.70;8.28;;;;;;;19.50;58.79;99691.96;1728682;82;21040;-79
2022/10/11 11:42:31;;;;;;;18.82;8.25;;;;;;;19.66;60.24;99694.16;1731393;82;20998;-79
2022/10/11 11:45:04;;;;;;;16.75;8.05;;;;;;;19.91;59.52;99689.39;1729470;82;21054;-79